Hawkesbury, Canada
Current Conditions -  °F | °C
As of 8:00 AM on Thursday 27 Nov 2014 (Local Time) from CYMX Reporting Station
Broken Clouds Broken Clouds  
Wind Chill: 23°   Ceiling: 25000
Heat Index: 23°   Visibility: 45mi
Dew Point: 16°   Wind: 3mph
Humidity: 74%   Direction: 360°N
Pressure: 30.04"   Gusts: NA
Location:  45.61°N, 74.61°W
Report Text: CYMX 271300Z 36003KT 45SM FEW035 BKN250 M05/M09 A3004 RMK SC1CI6 SLP176
Loading
Personal Weather Stations






























Interactive Weather Map New forecast layout! Learn more

10-Day Weather Forecast

Advertisements
Track Severe Weather on mobile